createdAt,value
2022-09-12T00:01:16.130Z,100201.34
2022-09-12T00:03:44.299Z,100207.00
2022-09-12T00:06:22.580Z,100200.44
2022-09-12T00:08:53.829Z,100206.44
2022-09-12T00:11:21.505Z,100200.00
2022-09-12T00:13:49.123Z,100200.31
2022-09-12T00:16:19.614Z,100198.91
2022-09-12T00:18:47.709Z,100206.16
2022-09-12T00:21:17.651Z,100208.88
2022-09-12T00:23:46.610Z,100209.28
2022-09-12T00:26:14.730Z,100209.41
2022-09-12T00:28:42.357Z,100212.28
2022-09-12T00:31:13.705Z,100215.72
2022-09-12T00:33:42.278Z,100217.56
2022-09-12T00:36:14.929Z,100212.28
2022-09-12T00:38:44.007Z,100212.47
2022-09-12T00:41:18.631Z,100211.34
2022-09-12T00:43:53.077Z,100210.53
2022-09-12T00:46:29.779Z,100209.03
2022-09-12T00:49:03.509Z,100204.75
2022-09-12T00:51:34.134Z,100206.63
2022-09-12T00:54:22.156Z,100203.34
2022-09-12T00:56:53.110Z,100212.94
2022-09-12T00:59:27.237Z,100210.03
2022-09-12T01:01:56.816Z,100214.03
2022-09-12T01:04:27.952Z,100217.09
2022-09-12T01:06:58.488Z,100222.06
2022-09-12T01:09:26.839Z,100222.97
2022-09-12T01:11:57.070Z,100222.09
2022-09-12T01:14:25.121Z,100225.66
2022-09-12T01:16:52.784Z,100218.53
2022-09-12T01:19:41.868Z,100220.84
2022-09-12T01:22:21.954Z,100221.16
2022-09-12T01:25:12.687Z,100224.69
2022-09-12T01:27:44.245Z,100227.13
2022-09-12T01:30:14.701Z,100225.38
2022-09-12T01:33:24.306Z,100230.09
2022-09-12T01:36:17.181Z,100235.12
2022-09-12T01:38:50.457Z,100224.41
2022-09-12T01:41:29.219Z,100236.03
2022-09-12T01:44:24.631Z,100237.94
2022-09-12T01:47:13.992Z,100234.88
2022-09-12T01:50:03.006Z,100237.19
2022-09-12T01:52:42.499Z,100238.72
2022-09-12T01:55:16.517Z,100243.56
2022-09-12T01:57:51.379Z,100241.72
2022-09-12T02:00:19.852Z,100236.31
2022-09-12T02:03:02.643Z,100243.44
2022-09-12T02:05:37.940Z,100246.25
2022-09-12T02:08:17.448Z,100236.94
2022-09-12T02:10:54.985Z,100235.25
2022-09-12T02:13:25.782Z,100238.50
2022-09-12T02:16:02.038Z,100246.87
2022-09-12T02:18:34.005Z,100244.84
2022-09-12T02:21:05.963Z,100251.69
2022-09-12T02:23:37.990Z,100252.28
2022-09-12T02:26:16.116Z,100246.25
2022-09-12T02:28:44.203Z,100244.06
2022-09-12T02:31:32.936Z,100251.53
2022-09-12T02:34:15.120Z,100247.16
2022-09-12T02:37:04.072Z,100239.25
2022-09-12T02:39:32.753Z,100246.41
2022-09-12T02:42:02.200Z,100246.41
2022-09-12T02:44:32.002Z,100250.59
2022-09-12T02:47:09.881Z,100253.09
2022-09-12T02:49:37.663Z,100256.34
2022-09-12T02:52:05.585Z,100261.44
2022-09-12T02:54:33.462Z,100263.66
2022-09-12T02:57:01.078Z,100265.34
2022-09-12T02:59:29.159Z,100265.00
2022-09-12T03:02:04.053Z,100266.25
2022-09-12T03:04:53.839Z,100268.56
2022-09-12T03:07:24.379Z,100265.47
2022-09-12T03:10:18.789Z,100267.97
2022-09-12T03:13:04.417Z,100280.56
2022-09-12T03:15:44.908Z,100277.28
2022-09-12T03:18:40.330Z,100278.06
2022-09-12T03:21:29.053Z,100285.78
2022-09-12T03:24:34.784Z,100279.12
2022-09-12T03:27:11.511Z,100279.47
2022-09-12T03:29:41.531Z,100267.16
2022-09-12T03:32:09.417Z,100272.62
2022-09-12T03:34:37.072Z,100276.97
2022-09-12T03:37:05.667Z,100283.31
2022-09-12T03:39:34.067Z,100284.87
2022-09-12T03:42:01.645Z,100286.59
2022-09-12T03:44:29.228Z,100289.22
2022-09-12T03:46:57.086Z,100284.56
2022-09-12T03:49:24.692Z,100286.88
2022-09-12T03:51:52.268Z,100288.75
2022-09-12T03:54:20.164Z,100298.69
2022-09-12T03:56:47.681Z,100304.13
2022-09-12T03:59:15.320Z,100297.75
2022-09-12T04:01:43.165Z,100304.72
2022-09-12T04:04:11.117Z,100303.03
2022-09-12T04:06:38.693Z,100313.09
2022-09-12T04:09:06.349Z,100307.97
2022-09-12T04:11:35.863Z,100303.47
2022-09-12T04:14:03.365Z,100302.09
2022-09-12T04:16:32.367Z,100308.16
2022-09-12T04:19:01.012Z,100304.25
2022-09-12T04:21:28.632Z,100309.56
2022-09-12T04:23:56.456Z,100313.88
2022-09-12T04:26:24.305Z,100320.25
2022-09-12T04:28:54.959Z,100319.63
2022-09-12T04:31:23.597Z,100319.34
2022-09-12T04:34:01.048Z,100317.63
2022-09-12T04:36:29.740Z,100317.75
2022-09-12T04:39:02.224Z,100318.69
2022-09-12T04:41:32.589Z,100325.22
2022-09-12T04:44:04.711Z,100323.97
2022-09-12T04:46:36.325Z,100330.97
2022-09-12T04:49:04.863Z,100340.12
2022-09-12T04:51:35.775Z,100338.69
2022-09-12T04:54:10.904Z,100345.09
2022-09-12T04:56:41.038Z,100339.50
2022-09-12T04:59:10.057Z,100351.91
2022-09-12T05:01:37.650Z,100340.88
2022-09-12T05:04:05.726Z,100341.81
2022-09-12T05:06:35.698Z,100338.41
2022-09-12T05:09:06.180Z,100354.69
2022-09-12T05:12:02.606Z,100351.00
2022-09-12T05:14:25.731Z,100355.16
2022-09-12T05:16:53.816Z,100364.94
2022-09-12T05:19:21.424Z,100356.88
2022-09-12T05:21:49.035Z,100364.16
2022-09-12T05:24:17.113Z,100370.06
2022-09-12T05:26:44.682Z,100362.53
2022-09-12T05:29:13.238Z,100372.66
2022-09-12T05:31:41.590Z,100368.25
2022-09-12T05:34:10.155Z,100369.16
2022-09-12T05:36:41.530Z,100374.19
2022-09-12T05:39:09.708Z,100373.84
2022-09-12T05:41:37.306Z,100374.56
2022-09-12T05:44:07.355Z,100379.41
2022-09-12T05:46:40.558Z,100377.94
2022-09-12T05:49:11.404Z,100383.09
2022-09-12T05:51:42.060Z,100374.97
2022-09-12T05:54:12.065Z,100381.34
2022-09-12T05:56:42.145Z,100385.84
2022-09-12T05:59:15.567Z,100376.97
2022-09-12T06:01:43.910Z,100377.03
2022-09-12T06:04:12.269Z,100375.06
2022-09-12T06:06:45.220Z,100376.03
2022-09-12T06:09:15.866Z,100375.28
2022-09-12T06:11:45.053Z,100373.81
2022-09-12T06:14:15.479Z,100380.88
2022-09-12T06:16:43.266Z,100376.03
2022-09-12T06:19:17.764Z,100380.09
2022-09-12T06:21:48.422Z,100381.62
2022-09-12T06:24:17.711Z,100376.59
2022-09-12T06:26:47.284Z,100381.84
2022-09-12T06:29:15.610Z,100380.53
2022-09-12T06:31:43.874Z,100384.31
2022-09-12T06:34:14.290Z,100386.09
2022-09-12T06:36:44.901Z,100382.19
2022-09-12T06:39:16.242Z,100386.47
2022-09-12T06:41:44.572Z,100387.59
2022-09-12T06:44:21.714Z,100390.47
2022-09-12T06:46:49.817Z,100395.22
2022-09-12T06:49:19.202Z,100392.00
2022-09-12T06:51:46.785Z,100385.63
2022-09-12T06:54:16.849Z,100389.56
2022-09-12T06:56:45.120Z,100386.69
2022-09-12T06:59:13.275Z,100389.66
2022-09-12T07:01:42.023Z,100393.03
2022-09-12T07:04:10.507Z,100389.63
2022-09-12T07:06:40.921Z,100382.94
2022-09-12T07:09:11.301Z,100387.16
2022-09-12T07:11:41.309Z,100391.34
2022-09-12T07:14:12.108Z,100393.56
2022-09-12T07:16:39.879Z,100389.16
2022-09-12T07:19:08.424Z,100389.66
2022-09-12T07:21:40.009Z,100394.34
2022-09-12T07:24:10.124Z,100387.69
2022-09-12T07:26:40.549Z,100389.16
2022-09-12T07:29:35.475Z,100397.97
2022-09-12T07:32:02.400Z,100393.25
2022-09-12T07:34:29.930Z,100394.25
2022-09-12T07:36:57.926Z,100398.25
2022-09-12T07:39:26.078Z,100405.16
2022-09-12T07:41:53.641Z,100406.13
2022-09-12T07:44:22.105Z,100401.75
2022-09-12T07:46:50.813Z,100410.19
2022-09-12T07:49:18.501Z,100410.19
2022-09-12T07:51:46.075Z,100412.44
2022-09-12T07:54:13.973Z,100410.16
2022-09-12T07:56:41.843Z,100408.53
2022-09-12T07:59:09.491Z,100414.75
2022-09-12T08:01:37.595Z,100417.72
2022-09-12T08:04:05.925Z,100420.00
2022-09-12T08:06:36.086Z,100417.31
2022-09-12T08:09:05.159Z,100415.44
2022-09-12T08:11:33.684Z,100421.66
2022-09-12T08:14:03.158Z,100408.97
2022-09-12T08:16:32.217Z,100409.72
2022-09-12T08:19:02.385Z,100409.72
2022-09-12T08:21:32.078Z,100412.09
2022-09-12T08:24:02.369Z,100410.41
2022-09-12T08:26:34.007Z,100418.31
2022-09-12T08:29:01.943Z,100413.84
2022-09-12T08:31:31.943Z,100414.25
2022-09-12T08:34:00.862Z,100414.59
2022-09-12T08:36:29.706Z,100415.88
2022-09-12T08:39:00.534Z,100420.47
2022-09-12T08:41:38.383Z,100417.38
2022-09-12T08:44:09.233Z,100415.38
2022-09-12T08:46:58.603Z,100416.22
2022-09-12T08:49:31.936Z,100422.09
2022-09-12T08:52:21.920Z,100418.09
2022-09-12T08:54:50.137Z,100413.13
2022-09-12T08:57:18.596Z,100419.59
2022-09-12T08:59:48.457Z,100415.97
2022-09-12T09:02:32.764Z,100407.81
2022-09-12T09:06:03.098Z,100411.88
2022-09-12T09:09:01.509Z,100390.94
2022-09-12T09:11:35.226Z,100393.44
2022-09-12T09:14:37.340Z,100395.06
2022-09-12T09:17:11.455Z,100384.47
2022-09-12T09:19:50.982Z,100392.34
2022-09-12T09:22:54.933Z,100393.50
2022-09-12T09:25:41.333Z,100384.75
2022-09-12T09:28:25.764Z,100393.00
2022-09-12T09:30:53.830Z,100403.44
2022-09-12T09:33:25.081Z,100398.16
2022-09-12T09:36:17.368Z,100389.06
2022-09-12T09:39:05.727Z,100392.13
2022-09-12T09:41:56.212Z,100389.44
2022-09-12T09:44:24.262Z,100393.31
2022-09-12T09:46:58.225Z,100385.41
2022-09-12T09:49:30.203Z,100379.97
2022-09-12T09:52:00.962Z,100376.37
2022-09-12T09:54:57.806Z,100376.09
2022-09-12T09:57:34.565Z,100372.59
2022-09-12T10:00:27.453Z,100373.66
2022-09-12T10:03:05.317Z,100370.84
2022-09-12T10:05:35.979Z,100368.41
2022-09-12T10:08:07.134Z,100369.59
2022-09-12T10:10:34.816Z,100363.28
2022-09-12T10:13:44.454Z,100366.03
2022-09-12T10:16:24.538Z,100366.47
2022-09-12T10:18:53.766Z,100368.12
2022-09-12T10:21:35.897Z,100367.66
2022-09-12T10:24:24.907Z,100359.13
2022-09-12T10:26:58.924Z,100364.12
2022-09-12T10:29:33.677Z,100360.16
2022-09-12T10:32:04.970Z,100366.63
2022-09-12T10:34:39.345Z,100353.50
2022-09-12T10:37:19.503Z,100356.63
2022-09-12T10:39:57.230Z,100354.44
2022-09-12T10:42:48.700Z,100367.28
2022-09-12T10:45:25.090Z,100360.75
2022-09-12T10:47:54.966Z,100362.00
2022-09-12T10:50:38.979Z,100364.12
2022-09-12T10:53:34.362Z,100369.16
2022-09-12T10:56:05.541Z,100366.59
2022-09-12T10:58:59.528Z,100367.75
2022-09-12T11:01:52.927Z,100365.00
2022-09-12T11:04:30.445Z,100361.03
2022-09-12T11:07:16.346Z,100358.72
2022-09-12T11:10:00.036Z,100359.88
2022-09-12T11:12:44.697Z,100347.41
2022-09-12T11:15:25.013Z,100359.16
2022-09-12T11:18:40.797Z,100354.16
2022-09-12T11:21:14.729Z,100357.97
2022-09-12T11:23:48.158Z,100351.22
2022-09-12T11:26:33.952Z,100349.63
2022-09-12T11:29:26.377Z,100345.22
2022-09-12T11:32:03.131Z,100346.69
2022-09-12T11:34:58.293Z,100336.72
2022-09-12T11:38:00.333Z,100332.37
2022-09-12T11:40:42.964Z,100334.06
2022-09-12T11:43:23.151Z,100322.94
2022-09-12T11:45:52.003Z,100318.72
2022-09-12T11:48:40.110Z,100332.00
2022-09-12T11:51:18.844Z,100322.41
2022-09-12T11:54:14.155Z,100317.25
2022-09-12T11:56:46.229Z,100329.56
2022-09-12T11:59:38.063Z,100320.25
2022-09-12T12:02:13.028Z,100329.31
2022-09-12T12:04:59.529Z,100328.44
2022-09-12T12:07:34.413Z,100326.38
2022-09-12T12:10:02.507Z,100313.22
2022-09-12T12:12:30.278Z,100314.53
2022-09-12T12:14:59.134Z,100314.03
2022-09-12T12:17:29.625Z,100317.22
2022-09-12T12:20:05.507Z,100316.88
2022-09-12T12:22:36.105Z,100320.53
2022-09-12T12:25:12.505Z,100316.69
2022-09-12T12:28:01.802Z,100313.41
2022-09-12T12:30:29.569Z,100319.38
2022-09-12T12:33:20.403Z,100320.50
2022-09-12T12:35:59.942Z,100312.69
2022-09-12T12:38:32.483Z,100311.37
2022-09-12T12:41:18.196Z,100315.37
2022-09-12T12:43:53.701Z,100309.22
2022-09-12T12:46:23.893Z,100307.06
2022-09-12T12:49:03.677Z,100306.44
2022-09-12T12:51:48.748Z,100309.53
2022-09-12T12:54:45.452Z,100315.06
2022-09-12T12:57:12.919Z,100320.09
2022-09-12T12:59:55.399Z,100316.34
2022-09-12T13:02:36.880Z,100312.72
2022-09-12T13:05:20.006Z,100312.22
2022-09-12T13:07:55.877Z,100308.63
2022-09-12T13:10:28.918Z,100304.25
2022-09-12T13:13:01.360Z,100306.06
2022-09-12T13:15:30.116Z,100299.44
2022-09-12T13:18:18.845Z,100301.41
2022-09-12T13:21:16.338Z,100295.25
2022-09-12T13:23:45.270Z,100293.16
2022-09-12T13:26:25.675Z,100291.41
2022-09-12T13:29:17.304Z,100278.28
2022-09-12T13:31:52.899Z,100279.72
2022-09-12T13:34:27.170Z,100280.56
2022-09-12T13:36:55.139Z,100282.16
2022-09-12T13:39:25.850Z,100286.12
2022-09-12T13:42:11.992Z,100281.78
2022-09-12T13:44:47.195Z,100294.31
2022-09-12T13:47:26.113Z,100289.00
2022-09-12T13:49:55.247Z,100278.69
2022-09-12T13:52:26.353Z,100289.16
2022-09-12T13:54:58.200Z,100287.22
2022-09-12T13:57:30.843Z,100290.78
2022-09-12T14:00:02.080Z,100284.81
2022-09-12T14:02:36.001Z,100281.78
2022-09-12T14:05:13.378Z,100282.16
2022-09-12T14:07:54.503Z,100277.78
2022-09-12T14:10:28.546Z,100282.38
2022-09-12T14:12:58.528Z,100287.84
2022-09-12T14:15:33.037Z,100279.22
2022-09-12T14:18:03.289Z,100280.34
2022-09-12T14:20:32.688Z,100284.81
2022-09-12T14:23:23.944Z,100276.72
2022-09-12T14:25:52.372Z,100274.87
2022-09-12T14:28:23.569Z,100277.41
2022-09-12T14:31:31.564Z,100272.81
2022-09-12T14:34:19.541Z,100271.75
2022-09-12T14:36:56.212Z,100272.91
2022-09-12T14:39:33.540Z,100274.66
2022-09-12T14:42:16.477Z,100278.34
2022-09-12T14:45:02.551Z,100269.09
2022-09-12T14:47:39.159Z,100273.91
2022-09-12T14:50:17.202Z,100270.87
2022-09-12T14:52:45.153Z,100274.03
2022-09-12T14:55:16.029Z,100265.44
2022-09-12T14:57:44.616Z,100270.69
2022-09-12T15:00:12.553Z,100268.69
2022-09-12T15:02:42.100Z,100271.41
2022-09-12T15:05:12.419Z,100262.59
2022-09-12T15:07:51.267Z,100265.00
2022-09-12T15:10:34.314Z,100270.69
2022-09-12T15:13:14.321Z,100271.78
2022-09-12T15:15:50.484Z,100274.97
2022-09-12T15:18:21.145Z,100276.34
2022-09-12T15:20:51.764Z,100267.69
2022-09-12T15:23:38.283Z,100278.31
2022-09-12T15:26:06.900Z,100273.50
2022-09-12T15:28:35.256Z,100274.16
2022-09-12T15:31:08.105Z,100278.34
2022-09-12T15:33:36.148Z,100269.66
2022-09-12T15:36:03.960Z,100273.44
2022-09-12T15:38:31.664Z,100272.38
2022-09-12T15:40:59.453Z,100268.91
2022-09-12T15:43:27.250Z,100267.03
2022-09-12T15:45:54.812Z,100278.75
2022-09-12T15:48:22.842Z,100274.94
2022-09-12T15:50:50.690Z,100280.72
2022-09-12T15:53:18.309Z,100280.81
2022-09-12T15:55:46.249Z,100273.81
2022-09-12T15:58:14.179Z,100277.66
2022-09-12T16:00:41.854Z,100275.97
2022-09-12T16:03:21.892Z,100279.34
2022-09-12T16:05:50.538Z,100282.16
2022-09-12T16:08:18.462Z,100282.25
2022-09-12T16:10:49.577Z,100278.91
2022-09-12T16:13:17.189Z,100277.44
2022-09-12T16:15:45.198Z,100280.28
2022-09-12T16:18:13.268Z,100281.41
2022-09-12T16:20:40.843Z,100278.56
2022-09-12T16:23:13.023Z,100287.31
2022-09-12T16:25:41.089Z,100280.66
2022-09-12T16:28:09.203Z,100283.28
2022-09-12T16:30:37.099Z,100278.66
2022-09-12T16:33:04.911Z,100280.97
2022-09-12T16:35:32.910Z,100285.00
2022-09-12T16:38:00.879Z,100278.94
2022-09-12T16:40:28.436Z,100281.03
2022-09-12T16:42:56.347Z,100279.19
2022-09-12T16:45:23.936Z,100284.63
2022-09-12T16:47:51.596Z,100287.44
2022-09-12T16:50:19.485Z,100287.44
2022-09-12T16:52:47.044Z,100283.22
2022-09-12T16:55:14.601Z,100286.12
2022-09-12T16:57:42.501Z,100292.91
2022-09-12T17:00:11.011Z,100289.34
2022-09-12T17:02:38.599Z,100293.12
2022-09-12T17:05:06.799Z,100299.62
2022-09-12T17:07:34.910Z,100291.84
2022-09-12T17:10:02.561Z,100299.75
2022-09-12T17:12:30.595Z,100307.28
2022-09-12T17:14:58.713Z,100307.09
2022-09-12T17:17:26.361Z,100311.28
2022-09-12T17:19:54.522Z,100308.00
2022-09-12T17:22:22.073Z,100310.66
2022-09-12T17:24:49.661Z,100314.78
2022-09-12T17:27:17.546Z,100315.00
2022-09-12T17:29:45.102Z,100311.78
2022-09-12T17:32:15.604Z,100312.88
2022-09-12T17:34:45.399Z,100320.22
2022-09-12T17:37:14.329Z,100326.03
2022-09-12T17:39:42.643Z,100326.28
2022-09-12T17:42:10.604Z,100323.31
2022-09-12T17:44:38.310Z,100337.44
2022-09-12T17:47:06.021Z,100340.00
2022-09-12T17:49:34.018Z,100338.66
2022-09-12T17:52:02.359Z,100344.50
2022-09-12T17:54:30.017Z,100349.69
2022-09-12T17:56:59.347Z,100362.53
2022-09-12T17:59:26.859Z,100363.50
2022-09-12T18:02:12.742Z,100384.78
2022-09-12T18:04:41.383Z,100385.87
2022-09-12T18:07:09.280Z,100385.38
2022-09-12T18:09:41.036Z,100385.94
2022-09-12T18:12:08.991Z,100399.16
2022-09-12T18:14:37.790Z,100404.47
2022-09-12T18:17:07.060Z,100406.97
2022-09-12T18:19:35.916Z,100409.00
2022-09-12T18:22:06.156Z,100412.63
2022-09-12T18:24:34.062Z,100413.31
2022-09-12T18:27:03.968Z,100415.63
2022-09-12T18:29:31.602Z,100413.44
2022-09-12T18:31:59.343Z,100415.78
2022-09-12T18:34:27.398Z,100423.72
2022-09-12T18:36:55.222Z,100424.06
2022-09-12T18:39:27.536Z,100427.78
2022-09-12T18:41:55.741Z,100435.28
2022-09-12T18:44:23.297Z,100432.75
2022-09-12T18:46:50.926Z,100441.13
2022-09-12T18:49:18.878Z,100439.12
2022-09-12T18:51:46.533Z,100437.59
2022-09-12T18:54:14.766Z,100443.63
2022-09-12T18:56:44.079Z,100441.28
2022-09-12T18:59:15.255Z,100439.12
2022-09-12T19:01:43.861Z,100444.88
2022-09-12T19:04:13.788Z,100446.59
2022-09-12T19:06:44.112Z,100446.13
2022-09-12T19:09:13.983Z,100440.09
2022-09-12T19:11:48.825Z,100454.22
2022-09-12T19:14:26.057Z,100455.25
2022-09-12T19:16:54.216Z,100449.38
2022-09-12T19:19:22.533Z,100454.03
2022-09-12T19:21:50.173Z,100444.88
2022-09-12T19:24:17.810Z,100455.50
2022-09-12T19:26:45.842Z,100451.69
2022-09-12T19:29:14.807Z,100446.72
2022-09-12T19:31:43.650Z,100451.63
2022-09-12T19:34:13.511Z,100459.22
2022-09-12T19:36:45.422Z,100456.69
2022-09-12T19:39:16.923Z,100457.66
2022-09-12T19:41:45.121Z,100451.13
2022-09-12T19:44:13.387Z,100453.91
2022-09-12T19:46:41.769Z,100456.22
2022-09-12T19:49:10.788Z,100454.34
2022-09-12T19:51:38.455Z,100452.50
2022-09-12T19:54:07.747Z,100458.50
2022-09-12T19:56:35.521Z,100453.22
2022-09-12T19:59:05.536Z,100452.53
2022-09-12T20:01:34.793Z,100457.09
2022-09-12T20:04:03.657Z,100458.81
2022-09-12T20:06:31.324Z,100458.81
2022-09-12T20:08:59.108Z,100457.22
2022-09-12T20:11:26.995Z,100455.00
2022-09-12T20:13:54.537Z,100453.31
2022-09-12T20:16:25.737Z,100455.97
2022-09-12T20:18:56.721Z,100462.09
2022-09-12T20:21:31.253Z,100457.75
2022-09-12T20:24:12.459Z,100461.00
2022-09-12T20:26:40.798Z,100461.13
2022-09-12T20:29:13.186Z,100471.66
2022-09-12T20:31:42.102Z,100465.66
2022-09-12T20:34:18.113Z,100461.53
2022-09-12T20:36:46.427Z,100463.53
2022-09-12T20:39:17.322Z,100463.38
2022-09-12T20:41:45.393Z,100469.72
2022-09-12T20:44:13.447Z,100467.28
2022-09-12T20:46:41.648Z,100471.31
2022-09-12T20:49:09.251Z,100469.72
2022-09-12T20:51:38.140Z,100471.31
2022-09-12T20:54:08.424Z,100477.37
2022-09-12T20:56:37.522Z,100480.53
2022-09-12T20:59:05.665Z,100483.00
2022-09-12T21:01:33.775Z,100474.06
2022-09-12T21:04:02.008Z,100479.81
2022-09-12T21:06:30.303Z,100477.87
2022-09-12T21:09:01.121Z,100484.09
2022-09-12T21:11:29.264Z,100478.91
2022-09-12T21:13:58.122Z,100478.66
2022-09-12T21:16:26.645Z,100470.47
2022-09-12T21:18:57.896Z,100470.50
2022-09-12T21:21:26.652Z,100474.00
2022-09-12T21:23:58.780Z,100469.56
2022-09-12T21:26:27.276Z,100472.97
2022-09-12T21:28:55.381Z,100475.22
2022-09-12T21:31:23.723Z,100477.28
2022-09-12T21:33:52.194Z,100471.56
2022-09-12T21:36:19.806Z,100479.97
2022-09-12T21:38:47.544Z,100482.19
2022-09-12T21:41:16.708Z,100473.84
2022-09-12T21:43:44.610Z,100487.09
2022-09-12T21:46:12.341Z,100481.97
2022-09-12T21:48:40.458Z,100480.09
2022-09-12T21:51:08.059Z,100480.81
2022-09-12T21:53:35.821Z,100469.25
2022-09-12T21:56:07.490Z,100472.91
2022-09-12T21:58:36.422Z,100465.16
2022-09-12T22:01:05.858Z,100465.53
2022-09-12T22:03:33.861Z,100460.94
2022-09-12T22:06:03.846Z,100457.31
2022-09-12T22:08:33.606Z,100459.28
2022-09-12T22:11:07.934Z,100462.59
2022-09-12T22:13:43.310Z,100470.03
2022-09-12T22:16:12.105Z,100467.19
2022-09-12T22:18:39.874Z,100470.00
2022-09-12T22:21:12.476Z,100469.44
2022-09-12T22:23:59.275Z,100471.91
2022-09-12T22:26:29.553Z,100467.87
2022-09-12T22:28:57.494Z,100468.41
2022-09-12T22:31:27.053Z,100467.34
2022-09-12T22:33:58.990Z,100471.06
2022-09-12T22:36:30.910Z,100472.97
2022-09-12T22:38:59.911Z,100468.53
2022-09-12T22:41:28.533Z,100460.25
2022-09-12T22:43:57.007Z,100467.59
2022-09-12T22:46:24.856Z,100466.25
2022-09-12T22:48:52.825Z,100469.56
2022-09-12T22:51:20.431Z,100474.03
2022-09-12T22:53:48.077Z,100469.38
2022-09-12T22:56:16.154Z,100474.34
2022-09-12T22:58:44.736Z,100465.78
2022-09-12T23:01:12.699Z,100467.94
2022-09-12T23:03:41.359Z,100458.94
2022-09-12T23:06:10.300Z,100467.53
2022-09-12T23:08:39.888Z,100463.13
2022-09-12T23:11:11.707Z,100458.41
2022-09-12T23:13:41.025Z,100449.03
2022-09-12T23:16:14.254Z,100448.97
2022-09-12T23:18:42.075Z,100442.53
2022-09-12T23:21:11.934Z,100441.25
2022-09-12T23:23:39.523Z,100433.97
2022-09-12T23:26:11.745Z,100444.09
2022-09-12T23:28:41.234Z,100436.25
2022-09-12T23:31:09.753Z,100443.19
2022-09-12T23:33:37.668Z,100432.66
2022-09-12T23:36:08.541Z,100437.91
2022-09-12T23:38:36.348Z,100436.28
2022-09-12T23:41:04.546Z,100438.97
2022-09-12T23:43:32.906Z,100429.94
2022-09-12T23:46:01.620Z,100433.25
2022-09-12T23:48:29.260Z,100429.12
2022-09-12T23:50:57.201Z,100425.69
2022-09-12T23:53:25.351Z,100424.88
2022-09-12T23:55:53.576Z,100421.41
2022-09-12T23:58:22.805Z,100424.13
